Time;durP1;ratioP1;P1;durP2;ratioP2;P2;SDS_P1;SDS_P2;PMS_P1;PMS_P2;Temp;Humidity;BMP_temperature;BMP_pressure;BME280_temperature;BME280_humidity;BME280_pressure;Samples;Min_cycle;Max_cycle;Signal;HPM_P1;HPM_P2
2022/01/30 00:01:38;;;;;;;;;;;20.70;32.70;;;;;;465685;256;1368;-40
2022/01/30 00:03:39;;;;;;;;;;;20.80;32.70;;;;;;465373;256;1527;-40
2022/01/30 00:05:41;;;;;;;;;;;20.80;32.70;;;;;;465583;254;1579;-40
2022/01/30 00:07:42;;;;;;;;;;;20.70;32.70;;;;;;465590;255;1183;-40
2022/01/30 00:09:43;;;;;;;;;;;20.70;32.70;;;;;;465794;256;1121;-40
2022/01/30 00:11:49;;;;;;;;;;;20.70;32.70;;;;;;465553;256;1231;-39
2022/01/30 00:13:46;;;;;;;;;;;20.80;32.70;;;;;;465135;256;2169;-40
2022/01/30 00:15:50;;;;;;;;;;;20.80;32.70;;;;;;465561;256;1050;-40
2022/01/30 00:17:54;;;;;;;;;;;20.80;32.70;;;;;;465256;256;2304;-40
2022/01/30 00:19:56;;;;;;;;;;;20.80;32.70;;;;;;465195;256;1582;-40
2022/01/30 00:22:09;;;;;;;;;;;20.70;32.70;;;;;;465103;256;1419;-40
2022/01/30 00:24:00;;;;;;;;;;;20.80;32.80;;;;;;464421;256;2451;-40
2022/01/30 00:25:56;;;;;;;;;;;20.70;32.70;;;;;;465073;256;2175;-40
2022/01/30 00:28:03;;;;;;;;;;;20.70;32.70;;;;;;465385;255;1299;-40
2022/01/30 00:29:58;;;;;;;;;;;20.70;32.80;;;;;;465124;256;2535;-39
2022/01/30 00:31:59;;;;;;;;;;;20.70;32.80;;;;;;465311;256;1412;-40
2022/01/30 00:34:01;;;;;;;;;;;20.70;32.80;;;;;;465416;255;1088;-40
2022/01/30 00:36:02;;;;;;;;;;;20.70;32.80;;;;;;465309;256;2368;-40
2022/01/30 00:38:03;;;;;;;;;;;20.70;32.80;;;;;;465468;256;2134;-39
2022/01/30 00:40:05;;;;;;;;;;;20.70;32.80;;;;;;465820;256;1071;-40
2022/01/30 00:42:06;;;;;;;;;;;20.70;32.80;;;;;;465398;256;1144;-40
2022/01/30 00:44:07;;;;;;;;;;;20.70;32.80;;;;;;465435;256;1393;-40
2022/01/30 00:46:09;;;;;;;;;;;20.70;32.80;;;;;;465814;256;1428;-40
2022/01/30 00:48:10;;;;;;;;;;;20.70;32.80;;;;;;465439;255;1135;-40
2022/01/30 00:50:11;;;;;;;;;;;20.70;32.80;;;;;;465844;256;1001;-40
2022/01/30 00:52:16;;;;;;;;;;;20.60;32.70;;;;;;465455;256;1392;-40
2022/01/30 00:54:14;;;;;;;;;;;20.60;32.80;;;;;;465635;256;2715;-40
2022/01/30 00:56:15;;;;;;;;;;;20.70;32.80;;;;;;465376;255;1297;-40
2022/01/30 00:58:16;;;;;;;;;;;20.70;32.80;;;;;;465469;256;2190;-40
2022/01/30 01:00:18;;;;;;;;;;;20.70;32.80;;;;;;465478;255;1298;-40
2022/01/30 01:02:19;;;;;;;;;;;20.70;32.80;;;;;;465419;255;1317;-40
2022/01/30 01:04:20;;;;;;;;;;;20.60;32.80;;;;;;465810;256;1232;-40
2022/01/30 01:06:22;;;;;;;;;;;20.60;32.80;;;;;;465665;256;1161;-40
2022/01/30 01:08:31;;;;;;;;;;;20.60;32.80;;;;;;465837;256;1083;-40
2022/01/30 01:10:34;;;;;;;;;;;20.60;32.80;;;;;;465462;256;1251;-40
2022/01/30 01:12:53;;;;;;;;;;;20.60;32.80;;;;;;465118;256;1784;-40
2022/01/30 01:24:04;;;;;;;;;;;20.70;32.90;;;;;;465462;256;1031;-40
2022/01/30 01:26:00;;;;;;;;;;;20.60;32.90;;;;;;465258;256;1457;-40
2022/01/30 01:28:02;;;;;;;;;;;20.60;32.90;;;;;;465379;256;1044;-40
2022/01/30 01:30:03;;;;;;;;;;;20.60;32.90;;;;;;465429;256;1227;-40
2022/01/30 01:32:04;;;;;;;;;;;20.60;32.90;;;;;;465437;256;1190;-40
2022/01/30 01:34:29;;;;;;;;;;;20.60;32.80;;;;;;465439;255;1065;-40
2022/01/30 01:36:21;;;;;;;;;;;20.60;32.80;;;;;;464751;256;2108;-40
2022/01/30 01:38:22;;;;;;;;;;;20.60;32.90;;;;;;465417;255;2201;-40
2022/01/30 01:40:23;;;;;;;;;;;20.60;32.90;;;;;;465359;256;1270;-40
2022/01/30 01:42:28;;;;;;;;;;;20.50;32.90;;;;;;465409;255;1188;-40
2022/01/30 01:44:32;;;;;;;;;;;20.50;32.90;;;;;;465203;256;2524;-40
2022/01/30 01:46:32;;;;;;;;;;;20.60;32.90;;;;;;465435;256;1402;-40
2022/01/30 01:48:33;;;;;;;;;;;20.60;32.90;;;;;;465567;256;2444;-40
2022/01/30 01:50:38;;;;;;;;;;;20.60;32.90;;;;;;465334;256;1213;-40
2022/01/30 01:52:39;;;;;;;;;;;20.60;32.90;;;;;;465418;255;2251;-40
2022/01/30 01:54:40;;;;;;;;;;;20.60;32.90;;;;;;465849;255;1306;-40
2022/01/30 01:56:42;;;;;;;;;;;20.60;32.90;;;;;;465400;255;1179;-40
2022/01/30 01:58:43;;;;;;;;;;;20.60;32.90;;;;;;465829;256;2217;-40
2022/01/30 02:00:44;;;;;;;;;;;20.60;32.90;;;;;;465480;256;1315;-40
2022/01/30 02:02:45;;;;;;;;;;;20.60;32.90;;;;;;465569;255;1303;-40
2022/01/30 02:04:47;;;;;;;;;;;20.60;32.90;;;;;;465673;255;1199;-40
2022/01/30 02:06:48;;;;;;;;;;;20.50;32.90;;;;;;465358;256;1123;-39
2022/01/30 02:08:53;;;;;;;;;;;20.50;32.90;;;;;;465825;256;1088;-40
2022/01/30 02:10:56;;;;;;;;;;;20.50;33.00;;;;;;465313;256;1803;-40
2022/01/30 02:12:55;;;;;;;;;;;20.60;32.90;;;;;;465158;256;2010;-40
2022/01/30 02:15:09;;;;;;;;;;;20.60;32.90;;;;;;465299;256;1955;-40
2022/01/30 02:24:00;;;;;;;;;;;20.60;32.90;;;;;;465631;256;1229;-40
2022/01/30 02:25:59;;;;;;;;;;;20.60;32.90;;;;;;465175;256;1821;-40
2022/01/30 02:28:00;;;;;;;;;;;20.60;32.90;;;;;;465724;256;2029;-40
2022/01/30 02:30:00;;;;;;;;;;;20.60;32.90;;;;;;463228;256;2550;-40
2022/01/30 02:32:02;;;;;;;;;;;20.50;32.90;;;;;;465159;255;1194;-40
2022/01/30 02:34:03;;;;;;;;;;;20.50;32.90;;;;;;466647;254;2344;-40
2022/01/30 02:36:04;;;;;;;;;;;20.50;32.90;;;;;;466644;254;1160;-40
2022/01/30 02:38:05;;;;;;;;;;;20.60;32.90;;;;;;466637;254;2133;-40
2022/01/30 02:40:10;;;;;;;;;;;20.60;32.90;;;;;;466877;254;1030;-40
2022/01/30 02:42:08;;;;;;;;;;;20.60;32.80;;;;;;466326;255;1735;-40
2022/01/30 02:44:14;;;;;;;;;;;20.50;32.90;;;;;;466631;254;1336;-40
2022/01/30 02:46:22;;;;;;;;;;;20.50;32.90;;;;;;466404;255;2048;-40
2022/01/30 02:48:17;;;;;;;;;;;20.50;32.90;;;;;;465814;255;2226;-40
2022/01/30 02:50:20;;;;;;;;;;;20.60;33.00;;;;;;466507;255;1842;-40
2022/01/30 02:52:17;;;;;;;;;;;20.60;32.90;;;;;;466313;255;1382;-40
2022/01/30 02:54:18;;;;;;;;;;;20.60;32.90;;;;;;466868;254;1053;-40
2022/01/30 02:56:20;;;;;;;;;;;20.50;32.90;;;;;;466982;254;1237;-40
2022/01/30 02:58:21;;;;;;;;;;;20.50;32.90;;;;;;467082;254;2170;-40
2022/01/30 03:00:22;;;;;;;;;;;20.50;32.90;;;;;;466970;254;1322;-40
2022/01/30 03:02:23;;;;;;;;;;;20.50;32.90;;;;;;466792;254;1200;-40
2022/01/30 03:04:25;;;;;;;;;;;20.50;32.90;;;;;;466666;254;1125;-40
2022/01/30 03:06:26;;;;;;;;;;;20.50;33.00;;;;;;466968;254;1252;-40
2022/01/30 03:08:27;;;;;;;;;;;20.50;33.00;;;;;;467101;254;1081;-40
2022/01/30 03:10:29;;;;;;;;;;;20.50;33.00;;;;;;466652;254;1560;-40
2022/01/30 03:12:30;;;;;;;;;;;20.50;33.00;;;;;;466663;254;1273;-40
2022/01/30 03:14:31;;;;;;;;;;;20.50;33.00;;;;;;466944;254;1205;-40
2022/01/30 03:16:33;;;;;;;;;;;20.40;33.00;;;;;;466631;254;1337;-40
2022/01/30 03:18:34;;;;;;;;;;;20.50;33.00;;;;;;466723;254;2205;-40
2022/01/30 03:20:35;;;;;;;;;;;20.50;33.00;;;;;;466975;254;1535;-40
2022/01/30 03:22:37;;;;;;;;;;;20.50;33.00;;;;;;466686;254;1064;-40
2022/01/30 03:24:38;;;;;;;;;;;20.50;33.00;;;;;;466687;254;1074;-40
2022/01/30 03:26:40;;;;;;;;;;;20.50;32.90;;;;;;467040;254;1221;-40
2022/01/30 03:28:42;;;;;;;;;;;20.50;33.00;;;;;;466649;255;2227;-40
2022/01/30 03:30:42;;;;;;;;;;;20.50;33.00;;;;;;466601;254;2193;-40
2022/01/30 03:32:44;;;;;;;;;;;20.50;32.90;;;;;;467075;254;1112;-40
2022/01/30 03:34:45;;;;;;;;;;;20.50;33.00;;;;;;466617;254;1187;-40
2022/01/30 03:36:46;;;;;;;;;;;20.60;32.90;;;;;;466669;254;1241;-40
2022/01/30 03:38:48;;;;;;;;;;;20.80;32.60;;;;;;466769;254;2134;-40
2022/01/30 03:40:49;;;;;;;;;;;21.00;32.30;;;;;;466789;254;1402;-40
2022/01/30 03:42:50;;;;;;;;;;;21.10;32.00;;;;;;466644;254;1201;-40
2022/01/30 03:44:51;;;;;;;;;;;21.20;31.80;;;;;;466933;254;1049;-40
2022/01/30 03:46:53;;;;;;;;;;;21.30;31.70;;;;;;466642;254;1315;-40
2022/01/30 03:48:54;;;;;;;;;;;21.40;31.50;;;;;;466673;254;1090;-40
2022/01/30 03:50:55;;;;;;;;;;;21.50;31.50;;;;;;466546;254;1221;-40
2022/01/30 03:52:57;;;;;;;;;;;21.50;31.30;;;;;;466978;254;1090;-40
2022/01/30 03:54:58;;;;;;;;;;;21.50;31.30;;;;;;467045;254;1162;-40
2022/01/30 03:56:59;;;;;;;;;;;21.60;31.20;;;;;;466671;254;1199;-40
2022/01/30 03:59:01;;;;;;;;;;;21.60;31.10;;;;;;466676;254;2200;-40
2022/01/30 04:01:02;;;;;;;;;;;21.70;31.10;;;;;;466833;254;1298;-40
2022/01/30 04:03:03;;;;;;;;;;;21.70;31.00;;;;;;466670;254;1229;-40
2022/01/30 04:05:05;;;;;;;;;;;21.80;31.00;;;;;;466723;254;1135;-40
2022/01/30 04:07:06;;;;;;;;;;;21.80;31.00;;;;;;466653;254;1484;-40
2022/01/30 04:09:07;;;;;;;;;;;21.90;31.00;;;;;;466874;254;1203;-40
2022/01/30 04:11:09;;;;;;;;;;;21.90;30.90;;;;;;466893;254;1355;-40
2022/01/30 04:13:10;;;;;;;;;;;21.90;30.90;;;;;;466652;254;1188;-40
2022/01/30 04:15:11;;;;;;;;;;;21.90;30.90;;;;;;466669;254;1154;-40
2022/01/30 04:17:13;;;;;;;;;;;21.90;30.90;;;;;;466665;254;1376;-40
2022/01/30 04:19:15;;;;;;;;;;;22.00;30.90;;;;;;466670;254;2125;-40
2022/01/30 04:21:16;;;;;;;;;;;22.00;30.90;;;;;;466564;254;1210;-40
2022/01/30 04:23:17;;;;;;;;;;;22.00;30.80;;;;;;466939;254;1277;-40
2022/01/30 04:25:19;;;;;;;;;;;22.00;30.80;;;;;;466663;254;1109;-40
2022/01/30 04:27:20;;;;;;;;;;;22.00;30.70;;;;;;466568;254;1212;-40
2022/01/30 04:29:21;;;;;;;;;;;22.10;30.80;;;;;;466902;254;1071;-40
2022/01/30 04:31:23;;;;;;;;;;;22.10;30.70;;;;;;466897;254;1209;-40
2022/01/30 04:33:24;;;;;;;;;;;22.10;30.70;;;;;;467032;254;1222;-40
2022/01/30 04:35:28;;;;;;;;;;;22.10;30.60;;;;;;466823;254;1382;-40
2022/01/30 04:37:34;;;;;;;;;;;22.10;30.60;;;;;;466646;255;2059;-40
2022/01/30 04:39:41;;;;;;;;;;;22.10;30.60;;;;;;466449;255;2209;-40
2022/01/30 04:53:21;;;;;;;;;;;22.30;30.50;;;;;;466640;255;1255;-40
2022/01/30 04:57:45;;;;;;;;;;;22.30;30.50;;;;;;466788;255;1262;-40
2022/01/30 04:59:52;;;;;;;;;;;22.30;30.50;;;;;;466543;255;2342;-40
2022/01/30 05:02:00;;;;;;;;;;;22.30;30.40;;;;;;466265;255;2553;-40
2022/01/30 05:04:02;;;;;;;;;;;22.40;30.50;;;;;;466696;255;1608;-40
2022/01/30 05:06:02;;;;;;;;;;;22.40;30.50;;;;;;465481;255;1915;-40
2022/01/30 05:08:02;;;;;;;;;;;22.40;30.40;;;;;;465191;256;2227;-40
2022/01/30 05:10:02;;;;;;;;;;;22.40;30.50;;;;;;465361;256;2130;-40
2022/01/30 05:12:03;;;;;;;;;;;22.40;30.40;;;;;;465797;255;1500;-40
2022/01/30 05:14:05;;;;;;;;;;;22.40;30.40;;;;;;465450;255;1118;-40
2022/01/30 05:16:06;;;;;;;;;;;22.40;30.40;;;;;;465780;256;1230;-40
2022/01/30 05:18:07;;;;;;;;;;;22.40;30.40;;;;;;465427;256;1368;-40
2022/01/30 05:20:09;;;;;;;;;;;22.40;30.40;;;;;;465669;256;2123;-40
2022/01/30 05:22:10;;;;;;;;;;;22.40;30.40;;;;;;465370;255;1647;-40
2022/01/30 05:24:11;;;;;;;;;;;22.40;30.30;;;;;;465887;255;1303;-40
2022/01/30 05:26:13;;;;;;;;;;;22.50;30.30;;;;;;465533;255;1485;-40
2022/01/30 05:28:14;;;;;;;;;;;22.50;30.30;;;;;;465789;256;1181;-40
2022/01/30 05:30:15;;;;;;;;;;;22.50;30.30;;;;;;465406;255;1108;-40
2022/01/30 05:32:16;;;;;;;;;;;22.50;30.40;;;;;;465422;256;1451;-40
2022/01/30 05:34:18;;;;;;;;;;;22.50;30.30;;;;;;465834;255;1078;-40
2022/01/30 05:36:19;;;;;;;;;;;22.50;30.40;;;;;;465798;255;1380;-40
2022/01/30 05:38:20;;;;;;;;;;;22.50;30.30;;;;;;465836;255;2201;-40
2022/01/30 05:40:22;;;;;;;;;;;22.50;30.30;;;;;;465405;255;1236;-40
2022/01/30 05:42:25;;;;;;;;;;;22.50;30.30;;;;;;465378;255;1215;-40
2022/01/30 05:44:38;;;;;;;;;;;22.60;30.40;;;;;;465320;256;2129;-40
2022/01/30 05:46:32;;;;;;;;;;;22.60;30.30;;;;;;464612;256;1491;-40
2022/01/30 05:48:30;;;;;;;;;;;22.60;30.30;;;;;;465275;256;2483;-40
2022/01/30 05:50:31;;;;;;;;;;;22.60;30.40;;;;;;465546;256;1497;-40
2022/01/30 05:52:32;;;;;;;;;;;22.60;30.40;;;;;;465330;256;1151;-40
2022/01/30 05:54:34;;;;;;;;;;;22.60;30.30;;;;;;465807;256;967;-40
2022/01/30 05:56:35;;;;;;;;;;;22.60;30.30;;;;;;465384;255;1472;-40
2022/01/30 05:58:36;;;;;;;;;;;22.60;30.30;;;;;;465604;256;2205;-40
2022/01/30 06:00:38;;;;;;;;;;;22.60;30.30;;;;;;465770;256;1440;-40
2022/01/30 06:02:39;;;;;;;;;;;22.60;30.30;;;;;;465556;256;1220;-40
2022/01/30 06:04:40;;;;;;;;;;;22.60;30.30;;;;;;465409;256;1038;-40
2022/01/30 06:06:49;;;;;;;;;;;22.60;30.30;;;;;;465696;256;1363;-40
2022/01/30 06:08:46;;;;;;;;;;;22.60;30.20;;;;;;465073;256;2081;-40
2022/01/30 06:10:51;;;;;;;;;;;22.70;30.30;;;;;;465619;255;1526;-40
2022/01/30 06:12:53;;;;;;;;;;;22.60;30.20;;;;;;465522;256;1200;-40
2022/01/30 06:14:55;;;;;;;;;;;22.70;30.30;;;;;;465611;256;1250;-40
2022/01/30 06:16:55;;;;;;;;;;;22.70;30.30;;;;;;465294;256;2355;-40
2022/01/30 06:18:57;;;;;;;;;;;22.70;30.30;;;;;;465516;255;2214;-40
2022/01/30 06:20:58;;;;;;;;;;;22.70;30.30;;;;;;465366;256;1239;-40
2022/01/30 06:22:59;;;;;;;;;;;22.70;30.30;;;;;;465555;256;1311;-40
2022/01/30 06:25:01;;;;;;;;;;;22.70;30.30;;;;;;465793;256;1202;-40
2022/01/30 06:27:02;;;;;;;;;;;22.70;30.30;;;;;;465330;255;1174;-40
2022/01/30 06:29:03;;;;;;;;;;;22.70;30.30;;;;;;465798;256;1215;-40
2022/01/30 06:31:05;;;;;;;;;;;22.70;30.30;;;;;;465342;255;1747;-40
2022/01/30 06:33:06;;;;;;;;;;;22.70;30.30;;;;;;465359;256;1230;-40
2022/01/30 06:35:07;;;;;;;;;;;22.70;30.30;;;;;;465779;256;1070;-40
2022/01/30 06:37:08;;;;;;;;;;;22.70;30.20;;;;;;465828;256;1161;-40
2022/01/30 06:39:11;;;;;;;;;;;22.70;30.30;;;;;;465427;256;2210;-40
2022/01/30 06:41:11;;;;;;;;;;;22.70;30.20;;;;;;465514;256;1559;-40
2022/01/30 06:43:12;;;;;;;;;;;22.70;30.20;;;;;;465799;255;1128;-40
2022/01/30 06:45:14;;;;;;;;;;;22.70;30.30;;;;;;465520;256;1260;-40
2022/01/30 06:47:15;;;;;;;;;;;22.70;30.30;;;;;;465372;256;1214;-40
2022/01/30 06:49:16;;;;;;;;;;;22.80;30.30;;;;;;465805;256;1201;-40
2022/01/30 06:51:18;;;;;;;;;;;22.80;30.30;;;;;;465383;255;1207;-40
2022/01/30 06:53:19;;;;;;;;;;;22.80;30.30;;;;;;465696;256;1225;-40
2022/01/30 06:55:20;;;;;;;;;;;22.80;30.30;;;;;;465813;256;1049;-40
2022/01/30 06:57:22;;;;;;;;;;;22.80;30.30;;;;;;465436;255;1220;-40
2022/01/30 06:59:23;;;;;;;;;;;22.80;30.30;;;;;;465678;256;2119;-40
2022/01/30 07:01:25;;;;;;;;;;;22.80;30.30;;;;;;465486;256;1140;-40
2022/01/30 07:03:26;;;;;;;;;;;22.80;30.20;;;;;;465348;256;2282;-40
2022/01/30 07:05:27;;;;;;;;;;;22.80;30.20;;;;;;465423;256;1447;-40
2022/01/30 07:07:29;;;;;;;;;;;22.80;30.30;;;;;;465354;256;1223;-40
2022/01/30 07:09:29;;;;;;;;;;;22.80;30.30;;;;;;465581;256;2361;-40
2022/01/30 07:11:31;;;;;;;;;;;22.80;30.30;;;;;;465461;256;1326;-40
2022/01/30 07:13:32;;;;;;;;;;;22.80;30.30;;;;;;465532;256;1314;-40
2022/01/30 07:15:34;;;;;;;;;;;22.80;30.30;;;;;;465509;256;1093;-40
2022/01/30 07:17:35;;;;;;;;;;;22.80;30.30;;;;;;465289;256;1219;-40
2022/01/30 07:19:36;;;;;;;;;;;22.80;30.20;;;;;;465453;256;2146;-40
2022/01/30 07:21:37;;;;;;;;;;;22.80;30.20;;;;;;465374;255;1127;-40
2022/01/30 07:23:39;;;;;;;;;;;22.80;30.20;;;;;;465839;255;1154;-40
2022/01/30 07:25:41;;;;;;;;;;;22.90;30.30;;;;;;465688;256;1127;-40
2022/01/30 07:27:42;;;;;;;;;;;22.90;30.20;;;;;;465292;256;1410;-40
2022/01/30 07:29:43;;;;;;;;;;;22.90;30.20;;;;;;465670;256;1214;-40
2022/01/30 07:31:44;;;;;;;;;;;22.90;30.20;;;;;;465530;256;1289;-40
2022/01/30 07:33:45;;;;;;;;;;;22.90;30.20;;;;;;465448;256;1270;-40
2022/01/30 07:35:47;;;;;;;;;;;22.90;30.20;;;;;;465768;256;1162;-40
2022/01/30 07:37:49;;;;;;;;;;;22.90;30.20;;;;;;465778;256;1152;-40
2022/01/30 07:39:49;;;;;;;;;;;22.90;30.20;;;;;;465398;256;2386;-40
2022/01/30 07:41:51;;;;;;;;;;;22.90;30.20;;;;;;465432;255;1599;-40
2022/01/30 07:43:52;;;;;;;;;;;22.90;30.20;;;;;;465330;256;1095;-40
2022/01/30 07:45:53;;;;;;;;;;;22.90;30.20;;;;;;465646;256;1330;-40
2022/01/30 07:47:55;;;;;;;;;;;22.90;30.20;;;;;;465335;256;1320;-40
2022/01/30 07:49:56;;;;;;;;;;;22.90;30.20;;;;;;465815;256;1392;-40
2022/01/30 07:51:57;;;;;;;;;;;22.90;30.20;;;;;;465263;255;1383;-40
2022/01/30 07:53:58;;;;;;;;;;;22.90;30.20;;;;;;465469;256;1020;-40
2022/01/30 07:56:00;;;;;;;;;;;22.90;30.20;;;;;;465273;256;1602;-40
2022/01/30 07:58:01;;;;;;;;;;;22.90;30.20;;;;;;465740;256;1615;-40
2022/01/30 08:00:02;;;;;;;;;;;22.90;30.20;;;;;;465789;256;2134;-40
2022/01/30 08:02:04;;;;;;;;;;;22.90;30.20;;;;;;465395;256;1254;-40
2022/01/30 08:04:06;;;;;;;;;;;22.90;30.20;;;;;;465397;256;1213;-40
2022/01/30 08:06:06;;;;;;;;;;;22.90;30.20;;;;;;465206;256;2448;-40
2022/01/30 08:08:08;;;;;;;;;;;22.90;30.20;;;;;;465382;255;1219;-40
2022/01/30 08:10:09;;;;;;;;;;;22.90;30.20;;;;;;465693;256;1083;-40
2022/01/30 08:12:10;;;;;;;;;;;23.00;30.20;;;;;;465463;255;1266;-40
2022/01/30 08:14:12;;;;;;;;;;;23.00;30.20;;;;;;465444;256;1393;-40
2022/01/30 08:16:13;;;;;;;;;;;23.00;30.20;;;;;;465669;252;1428;-40
2022/01/30 08:18:14;;;;;;;;;;;23.00;30.10;;;;;;465289;256;1534;-40
2022/01/30 08:20:16;;;;;;;;;;;23.00;30.20;;;;;;465519;256;2150;-40
2022/01/30 08:22:17;;;;;;;;;;;23.00;30.20;;;;;;465436;256;1239;-40
2022/01/30 08:24:19;;;;;;;;;;;23.00;30.20;;;;;;465398;255;1201;-40
2022/01/30 08:26:20;;;;;;;;;;;23.00;30.10;;;;;;465618;255;1521;-40
2022/01/30 08:28:21;;;;;;;;;;;23.00;30.10;;;;;;465581;256;1422;-40
2022/01/30 08:30:22;;;;;;;;;;;23.00;30.10;;;;;;465811;256;1074;-40
2022/01/30 08:32:24;;;;;;;;;;;23.00;30.10;;;;;;465403;256;1222;-40
2022/01/30 08:34:25;;;;;;;;;;;23.00;30.10;;;;;;465579;255;1309;-40
2022/01/30 08:36:26;;;;;;;;;;;23.00;30.10;;;;;;465583;256;1515;-40
2022/01/30 08:38:28;;;;;;;;;;;23.00;30.10;;;;;;465528;255;1213;-40
2022/01/30 08:40:29;;;;;;;;;;;23.00;30.20;;;;;;465614;256;2147;-40
2022/01/30 08:42:30;;;;;;;;;;;23.10;30.20;;;;;;465684;256;1217;-40
2022/01/30 08:44:32;;;;;;;;;;;23.10;30.20;;;;;;465829;256;1241;-40
2022/01/30 08:46:33;;;;;;;;;;;23.00;30.10;;;;;;465567;256;1288;-40
2022/01/30 08:48:34;;;;;;;;;;;23.00;30.10;;;;;;465745;256;1250;-40
2022/01/30 08:50:35;;;;;;;;;;;23.00;30.20;;;;;;465755;256;1452;-40
2022/01/30 08:52:37;;;;;;;;;;;23.10;30.20;;;;;;465422;255;1224;-40
2022/01/30 08:54:38;;;;;;;;;;;23.00;30.10;;;;;;465396;256;1091;-40
2022/01/30 08:56:39;;;;;;;;;;;23.10;30.20;;;;;;465297;256;1229;-40
2022/01/30 08:58:41;;;;;;;;;;;23.10;30.20;;;;;;465550;256;1233;-40
2022/01/30 09:00:42;;;;;;;;;;;23.10;30.20;;;;;;465361;256;2131;-40
2022/01/30 09:02:43;;;;;;;;;;;23.00;30.10;;;;;;465471;255;1305;-40
2022/01/30 09:04:45;;;;;;;;;;;23.10;30.10;;;;;;465406;256;1241;-40
2022/01/30 09:06:46;;;;;;;;;;;23.10;30.20;;;;;;465485;256;1318;-40
2022/01/30 09:08:47;;;;;;;;;;;23.10;30.10;;;;;;465653;256;1092;-40
2022/01/30 09:10:49;;;;;;;;;;;23.00;30.20;;;;;;465436;255;1379;-40
2022/01/30 09:12:50;;;;;;;;;;;23.00;30.30;;;;;;465589;256;1344;-40
2022/01/30 09:14:52;;;;;;;;;;;22.70;30.50;;;;;;465832;256;1088;-40
2022/01/30 09:16:53;;;;;;;;;;;22.60;30.90;;;;;;465444;256;1614;-40
2022/01/30 09:18:56;;;;;;;;;;;22.40;31.20;;;;;;465656;256;1175;-40
2022/01/30 09:20:56;;;;;;;;;;;22.30;31.30;;;;;;465264;256;2602;-40
2022/01/30 09:22:57;;;;;;;;;;;22.20;31.50;;;;;;465577;255;1559;-40
2022/01/30 09:24:58;;;;;;;;;;;22.10;31.70;;;;;;465801;256;1259;-40
2022/01/30 09:27:00;;;;;;;;;;;22.10;31.80;;;;;;465654;256;1186;-40
2022/01/30 09:29:01;;;;;;;;;;;22.00;31.90;;;;;;465580;256;1059;-40
2022/01/30 09:31:02;;;;;;;;;;;21.90;32.00;;;;;;465605;255;1197;-40
2022/01/30 09:33:03;;;;;;;;;;;21.80;32.00;;;;;;465820;256;1292;-40
2022/01/30 09:35:05;;;;;;;;;;;21.80;32.10;;;;;;465617;256;1209;-40
2022/01/30 09:37:06;;;;;;;;;;;21.80;32.20;;;;;;465343;255;1398;-40
2022/01/30 09:39:07;;;;;;;;;;;21.80;32.30;;;;;;465859;256;1252;-40
2022/01/30 09:41:09;;;;;;;;;;;21.70;32.30;;;;;;465743;255;2205;-40
2022/01/30 09:43:10;;;;;;;;;;;21.60;32.30;;;;;;465787;256;1215;-40
2022/01/30 09:45:11;;;;;;;;;;;21.60;32.40;;;;;;465850;256;1074;-40
2022/01/30 09:47:13;;;;;;;;;;;21.60;32.40;;;;;;465802;256;1304;-40
2022/01/30 09:49:14;;;;;;;;;;;21.60;32.40;;;;;;465786;256;1170;-40
2022/01/30 09:51:15;;;;;;;;;;;21.60;32.50;;;;;;465710;255;1321;-40
2022/01/30 09:53:17;;;;;;;;;;;21.50;32.50;;;;;;465603;256;1244;-40
2022/01/30 09:55:18;;;;;;;;;;;21.50;32.50;;;;;;465597;256;1099;-40
2022/01/30 09:57:19;;;;;;;;;;;21.50;32.50;;;;;;465629;256;1314;-40
2022/01/30 09:59:21;;;;;;;;;;;21.50;32.60;;;;;;465793;256;1038;-40
2022/01/30 10:01:22;;;;;;;;;;;21.40;32.60;;;;;;465670;256;2135;-40
2022/01/30 10:03:23;;;;;;;;;;;21.40;32.60;;;;;;465405;256;1230;-40
2022/01/30 10:05:24;;;;;;;;;;;21.40;32.70;;;;;;465406;255;1676;-39
2022/01/30 10:07:26;;;;;;;;;;;21.40;32.70;;;;;;465337;255;1193;-40
2022/01/30 10:09:29;;;;;;;;;;;21.40;32.70;;;;;;465428;255;2186;-40
2022/01/30 10:11:31;;;;;;;;;;;21.40;32.70;;;;;;465270;256;2281;-40
2022/01/30 10:13:30;;;;;;;;;;;21.40;32.80;;;;;;465242;256;2469;-40
2022/01/30 10:15:31;;;;;;;;;;;21.30;32.80;;;;;;465799;256;1130;-39
2022/01/30 10:17:32;;;;;;;;;;;21.30;32.80;;;;;;465570;255;1223;-40
2022/01/30 10:19:34;;;;;;;;;;;21.30;32.80;;;;;;465299;255;1230;-40
2022/01/30 10:21:35;;;;;;;;;;;21.30;32.80;;;;;;465601;255;2202;-40
2022/01/30 10:23:36;;;;;;;;;;;21.30;32.80;;;;;;465365;256;1226;-40
2022/01/30 10:25:38;;;;;;;;;;;21.30;32.80;;;;;;465607;255;1405;-40
2022/01/30 10:27:39;;;;;;;;;;;21.30;32.90;;;;;;465527;256;1289;-40
2022/01/30 10:29:40;;;;;;;;;;;21.20;32.80;;;;;;465382;255;1225;-40
2022/01/30 10:31:42;;;;;;;;;;;21.20;32.80;;;;;;465500;256;1361;-40
2022/01/30 10:33:45;;;;;;;;;;;21.20;32.90;;;;;;465426;256;1235;-40
2022/01/30 10:35:45;;;;;;;;;;;21.20;32.80;;;;;;465515;256;2219;-40
2022/01/30 10:37:46;;;;;;;;;;;21.20;32.90;;;;;;465494;256;1222;-40
2022/01/30 10:39:47;;;;;;;;;;;21.20;32.90;;;;;;465363;256;1084;-40
2022/01/30 10:41:54;;;;;;;;;;;21.20;32.90;;;;;;465286;256;2210;-40
2022/01/30 10:43:50;;;;;;;;;;;21.20;32.90;;;;;;465136;256;2408;-40
2022/01/30 10:45:51;;;;;;;;;;;21.10;33.00;;;;;;465425;256;1285;-40
2022/01/30 10:47:53;;;;;;;;;;;21.10;33.00;;;;;;465475;256;1286;-40
2022/01/30 10:49:54;;;;;;;;;;;21.10;33.00;;;;;;465357;255;1153;-40
2022/01/30 10:51:55;;;;;;;;;;;21.10;33.00;;;;;;465773;256;1223;-40
2022/01/30 10:53:57;;;;;;;;;;;21.10;33.00;;;;;;465633;256;1031;-40
2022/01/30 10:55:58;;;;;;;;;;;21.10;33.00;;;;;;465312;256;1384;-40
2022/01/30 10:58:00;;;;;;;;;;;21.10;32.90;;;;;;465681;256;1158;-40
2022/01/30 11:00:01;;;;;;;;;;;21.10;33.00;;;;;;465818;256;1209;-40
2022/01/30 11:02:02;;;;;;;;;;;21.10;33.00;;;;;;465272;256;2135;-40
2022/01/30 11:04:04;;;;;;;;;;;21.10;33.00;;;;;;465470;256;1094;-40
2022/01/30 11:06:07;;;;;;;;;;;21.10;33.10;;;;;;465293;256;1519;-40
2022/01/30 11:08:07;;;;;;;;;;;21.10;33.00;;;;;;465283;256;1842;-40
2022/01/30 11:10:09;;;;;;;;;;;21.10;33.00;;;;;;465686;256;1051;-40
2022/01/30 11:12:13;;;;;;;;;;;21.10;33.10;;;;;;465250;255;2433;-40
2022/01/30 11:14:17;;;;;;;;;;;21.00;33.00;;;;;;465226;256;2320;-40
2022/01/30 11:18:35;;;;;;;;;;;21.00;33.00;;;;;;465814;256;1325;-40
2022/01/30 11:20:36;;;;;;;;;;;21.00;33.00;;;;;;465379;255;2198;-40
2022/01/30 11:22:38;;;;;;;;;;;21.10;33.10;;;;;;465569;256;1226;-40
2022/01/30 11:24:39;;;;;;;;;;;21.00;33.10;;;;;;465842;256;1068;-40
2022/01/30 11:26:40;;;;;;;;;;;21.00;33.10;;;;;;465325;255;1381;-40
2022/01/30 11:28:42;;;;;;;;;;;21.00;33.10;;;;;;465358;256;1244;-40
2022/01/30 11:30:43;;;;;;;;;;;21.00;33.10;;;;;;465347;256;1403;-40
2022/01/30 11:32:44;;;;;;;;;;;21.00;33.10;;;;;;465387;256;1200;-40
2022/01/30 11:34:46;;;;;;;;;;;21.00;33.10;;;;;;465389;256;1059;-40
2022/01/30 11:36:48;;;;;;;;;;;20.90;33.10;;;;;;465292;256;1557;-40
2022/01/30 11:38:49;;;;;;;;;;;20.90;33.10;;;;;;465715;256;1242;-40
2022/01/30 11:40:50;;;;;;;;;;;20.90;33.20;;;;;;465376;253;2151;-40
2022/01/30 11:42:53;;;;;;;;;;;20.90;33.10;;;;;;465544;256;1271;-40
2022/01/30 11:44:53;;;;;;;;;;;20.90;33.10;;;;;;465382;255;2199;-40
2022/01/30 11:46:54;;;;;;;;;;;20.90;33.10;;;;;;465492;256;1689;-40
2022/01/30 11:48:56;;;;;;;;;;;21.00;33.10;;;;;;465827;256;1045;-40
2022/01/30 11:50:57;;;;;;;;;;;20.90;33.10;;;;;;465543;256;1343;-40
2022/01/30 11:52:58;;;;;;;;;;;20.90;33.20;;;;;;465735;255;1186;-40
2022/01/30 11:55:01;;;;;;;;;;;20.90;33.10;;;;;;465780;256;1066;-40
2022/01/30 11:57:01;;;;;;;;;;;20.90;33.20;;;;;;465478;256;2185;-40
2022/01/30 11:59:05;;;;;;;;;;;20.90;33.10;;;;;;465395;255;1237;-40
2022/01/30 12:01:03;;;;;;;;;;;20.90;33.10;;;;;;465192;256;2232;-39
2022/01/30 12:03:05;;;;;;;;;;;20.90;33.10;;;;;;465727;255;1181;-40
2022/01/30 12:05:06;;;;;;;;;;;20.90;33.20;;;;;;465384;255;1095;-40
2022/01/30 12:07:07;;;;;;;;;;;20.90;33.20;;;;;;465360;256;1261;-40
2022/01/30 12:09:09;;;;;;;;;;;20.80;33.20;;;;;;465529;256;1015;-39
2022/01/30 12:11:10;;;;;;;;;;;20.80;33.20;;;;;;465300;256;1268;-40
2022/01/30 12:13:11;;;;;;;;;;;20.80;33.20;;;;;;465352;255;1279;-40
2022/01/30 12:15:13;;;;;;;;;;;20.80;33.20;;;;;;465408;256;1106;-40
2022/01/30 12:17:14;;;;;;;;;;;20.80;33.20;;;;;;465384;255;1165;-40
2022/01/30 12:19:16;;;;;;;;;;;20.80;33.20;;;;;;465631;256;1078;-40
2022/01/30 12:21:17;;;;;;;;;;;20.80;33.30;;;;;;465441;256;2134;-40
2022/01/30 12:23:18;;;;;;;;;;;20.80;33.30;;;;;;465608;255;1209;-40
2022/01/30 12:25:20;;;;;;;;;;;20.80;33.20;;;;;;465612;256;1091;-40
2022/01/30 12:27:21;;;;;;;;;;;20.80;33.20;;;;;;465532;256;1236;-40
2022/01/30 12:29:22;;;;;;;;;;;20.80;33.20;;;;;;465818;256;1067;-40
2022/01/30 12:31:24;;;;;;;;;;;20.80;33.30;;;;;;465615;256;1209;-40